createdAt,value
2018-08-03T00:00:24.494Z,45.20
2018-08-03T00:01:24.480Z,46.09
2018-08-03T00:02:24.474Z,45.50
2018-08-03T00:03:24.466Z,45.62
2018-08-03T00:04:24.515Z,45.92
2018-08-03T00:05:25.276Z,45.42
2018-08-03T00:06:24.430Z,46.71
2018-08-03T00:07:24.414Z,46.12
2018-08-03T00:08:24.424Z,46.31
2018-08-03T00:09:24.468Z,46.61
2018-08-03T00:10:24.386Z,45.92
2018-08-03T00:11:24.375Z,46.51
2018-08-03T00:12:24.433Z,46.12
2018-08-03T00:13:24.360Z,46.61
2018-08-03T00:14:24.344Z,46.24
2018-08-03T00:15:24.410Z,47.03
2018-08-03T00:16:24.325Z,46.73
2018-08-03T00:17:24.317Z,46.73
2018-08-03T00:18:24.301Z,46.44
2018-08-03T00:19:24.299Z,46.64
2018-08-03T00:20:24.345Z,47.92
2018-08-03T00:21:24.269Z,47.25
2018-08-03T00:22:24.266Z,46.76
2018-08-03T00:23:24.250Z,47.16
2018-08-03T00:24:24.247Z,46.46
2018-08-03T00:25:24.297Z,46.26
2018-08-03T00:26:24.778Z,46.86
2018-08-03T00:27:24.208Z,47.55
2018-08-03T00:28:24.196Z,46.46
2018-08-03T00:29:24.186Z,46.76
2018-08-03T00:30:24.241Z,46.76
2018-08-03T00:31:24.167Z,47.55
2018-08-03T00:32:24.161Z,46.86
2018-08-03T00:33:24.152Z,48.05
2018-08-03T00:34:24.143Z,47.17
2018-08-03T00:35:24.183Z,46.76
2018-08-03T00:36:24.119Z,47.45
2018-08-03T00:37:24.106Z,47.87
2018-08-03T00:38:24.096Z,47.28
2018-08-03T00:39:24.084Z,46.48
2018-08-03T00:40:24.136Z,47.28
2018-08-03T00:41:24.062Z,46.78
2018-08-03T00:42:24.063Z,47.17
2018-08-03T00:43:24.056Z,46.88
2018-08-03T00:44:24.031Z,47.38
2018-08-03T00:45:24.092Z,48.17
2018-08-03T00:46:24.009Z,48.47
2018-08-03T00:47:24.774Z,48.27
2018-08-03T00:48:23.987Z,48.47
2018-08-03T00:49:23.976Z,48.89
2018-08-03T00:50:24.031Z,48.10
2018-08-03T00:51:23.974Z,49.19
2018-08-03T00:52:23.948Z,49.08
2018-08-03T00:53:23.934Z,49.41
2018-08-03T00:54:23.925Z,49.71
2018-08-03T00:55:23.978Z,49.68
2018-08-03T00:56:23.903Z,49.29
2018-08-03T00:57:23.892Z,49.31
2018-08-03T00:58:23.884Z,49.71
2018-08-03T00:59:23.868Z,49.78
2018-08-03T01:00:23.936Z,49.31
2018-08-03T01:01:23.857Z,49.80
2018-08-03T01:02:23.843Z,50.20
2018-08-03T01:03:23.831Z,50.31
2018-08-03T01:04:23.818Z,49.71
2018-08-03T01:05:23.883Z,49.53
2018-08-03T01:06:23.812Z,49.41
2018-08-03T01:07:23.787Z,49.91
2018-08-03T01:08:24.283Z,50.10
2018-08-03T01:09:23.777Z,49.41
2018-08-03T01:10:23.831Z,49.91
2018-08-03T01:11:23.767Z,50.01
2018-08-03T01:12:23.735Z,49.51
2018-08-03T01:13:23.723Z,49.71
2018-08-03T01:14:23.715Z,50.10
2018-08-03T01:15:23.771Z,49.61
2018-08-03T01:16:23.698Z,50.20
2018-08-03T01:17:23.682Z,50.13
2018-08-03T01:18:23.681Z,50.20
2018-08-03T01:19:23.680Z,49.80
2018-08-03T01:20:23.726Z,50.52
2018-08-03T01:21:23.637Z,50.52
2018-08-03T01:22:23.635Z,50.43
2018-08-03T01:23:23.619Z,49.93
2018-08-03T01:24:23.618Z,50.52
2018-08-03T01:25:23.662Z,50.75
2018-08-03T01:26:23.585Z,51.45
2018-08-03T01:27:23.579Z,51.05
2018-08-03T01:28:23.563Z,51.15
2018-08-03T01:29:24.317Z,51.95
2018-08-03T01:30:23.607Z,52.24
2018-08-03T01:31:31.641Z,51.27
2018-08-03T01:32:31.659Z,52.27
2018-08-03T01:33:31.659Z,51.77
2018-08-03T01:34:31.664Z,50.48
2018-08-03T01:35:31.735Z,50.87
2018-08-03T01:36:23.485Z,51.47
2018-08-03T01:37:23.465Z,51.07
2018-08-03T01:38:23.455Z,51.17
2018-08-03T01:39:23.449Z,50.98
2018-08-03T01:40:23.505Z,51.97
2018-08-03T01:41:32.488Z,51.77
2018-08-03T01:42:23.419Z,50.38
2018-08-03T01:43:23.405Z,52.27
2018-08-03T01:44:23.397Z,52.37
2018-08-03T01:45:23.455Z,52.17
2018-08-03T01:46:23.378Z,50.68
2018-08-03T01:47:23.394Z,52.47
2018-08-03T01:48:23.358Z,52.67
2018-08-03T01:49:23.347Z,52.17
2018-08-03T01:50:23.399Z,52.47
2018-08-03T01:51:23.324Z,51.77
2018-08-03T01:52:23.311Z,52.67
2018-08-03T01:53:23.316Z,52.37
2018-08-03T01:54:23.294Z,52.17
2018-08-03T01:55:23.359Z,52.97
2018-08-03T01:56:23.336Z,52.76
2018-08-03T01:57:23.260Z,52.67
2018-08-03T01:58:23.250Z,53.66
2018-08-03T01:59:23.243Z,52.76
2018-08-03T02:00:23.228Z,52.89
2018-08-03T02:01:23.287Z,53.99
2018-08-03T02:02:24.984Z,52.69
2018-08-03T02:03:23.252Z,52.39
2018-08-03T02:04:23.202Z,53.19
2018-08-03T02:05:23.180Z,54.49
2018-08-03T02:06:23.230Z,54.28
2018-08-03T02:07:23.153Z,54.19
2018-08-03T02:08:23.142Z,54.28
2018-08-03T02:09:23.139Z,54.28
2018-08-03T02:10:23.123Z,53.69
2018-08-03T02:11:23.178Z,53.09
2018-08-03T02:12:23.100Z,53.89
2018-08-03T02:13:23.100Z,54.58
2018-08-03T02:14:23.079Z,54.38
2018-08-03T02:15:23.067Z,54.81
2018-08-03T02:16:23.128Z,54.58
2018-08-03T02:17:23.053Z,54.58
2018-08-03T02:18:23.039Z,55.08
2018-08-03T02:19:23.025Z,53.09
2018-08-03T02:20:23.022Z,55.11
2018-08-03T02:21:23.072Z,55.11
2018-08-03T02:22:23.000Z,53.81
2018-08-03T02:23:23.490Z,55.01
2018-08-03T02:24:22.975Z,54.98
2018-08-03T02:25:22.967Z,54.91
2018-08-03T02:26:23.028Z,55.31
2018-08-03T02:27:22.945Z,54.81
2018-08-03T02:28:22.939Z,55.01
2018-08-03T02:29:22.925Z,54.71
2018-08-03T02:30:22.923Z,54.91
2018-08-03T02:31:22.973Z,55.01
2018-08-03T02:32:22.895Z,55.51
2018-08-03T02:33:22.882Z,55.11
2018-08-03T02:34:22.881Z,55.51
2018-08-03T02:35:22.870Z,56.01
2018-08-03T02:36:22.930Z,55.80
2018-08-03T02:37:22.839Z,54.71
2018-08-03T02:38:22.834Z,55.71
2018-08-03T02:39:22.822Z,54.44
2018-08-03T02:40:22.818Z,54.34
2018-08-03T02:41:22.867Z,55.01
2018-08-03T02:42:22.792Z,52.34
2018-08-03T02:43:22.776Z,54.94
2018-08-03T02:44:23.486Z,53.81
2018-08-03T02:45:22.759Z,54.83
2018-08-03T02:46:22.814Z,55.11
2018-08-03T02:47:22.741Z,56.03
2018-08-03T02:48:22.732Z,55.21
2018-08-03T02:49:22.726Z,55.04
2018-08-03T02:50:22.703Z,55.04
2018-08-03T02:51:22.764Z,56.33
2018-08-03T02:52:22.684Z,55.73
2018-08-03T02:53:22.673Z,55.63
2018-08-03T02:54:22.667Z,53.34
2018-08-03T02:55:22.659Z,55.73
2018-08-03T02:56:22.706Z,54.94
2018-08-03T02:57:22.631Z,56.83
2018-08-03T02:58:22.628Z,56.23
2018-08-03T02:59:22.614Z,55.54
2018-08-03T03:00:22.599Z,54.57
2018-08-03T03:01:22.657Z,55.73
2018-08-03T03:02:22.587Z,56.13
2018-08-03T03:03:22.568Z,56.06
2018-08-03T03:04:22.571Z,56.06
2018-08-03T03:05:23.486Z,55.46
2018-08-03T03:06:22.649Z,56.26
2018-08-03T03:07:22.556Z,55.66
2018-08-03T03:08:22.516Z,55.16
2018-08-03T03:09:22.507Z,57.06
2018-08-03T03:10:22.512Z,56.85
2018-08-03T03:11:22.551Z,54.86
2018-08-03T03:12:22.482Z,53.96
2018-08-03T03:13:22.470Z,55.96
2018-08-03T03:14:22.457Z,56.26
2018-08-03T03:15:22.448Z,55.96
2018-08-03T03:16:22.493Z,56.56
2018-08-03T03:17:22.419Z,55.86
2018-08-03T03:18:22.412Z,55.36
2018-08-03T03:19:22.432Z,56.66
2018-08-03T03:20:22.388Z,55.56
2018-08-03T03:21:22.446Z,55.86
2018-08-03T03:22:22.379Z,56.56
2018-08-03T03:23:22.362Z,56.96
2018-08-03T03:24:22.360Z,56.76
2018-08-03T03:25:22.336Z,56.85
2018-08-03T03:26:22.557Z,56.76
2018-08-03T03:27:22.326Z,57.06
2018-08-03T03:28:22.308Z,57.06
2018-08-03T03:29:22.296Z,56.06
2018-08-03T03:30:22.289Z,56.36
2018-08-03T03:31:22.368Z,56.56
2018-08-03T03:32:22.266Z,57.28
2018-08-03T03:33:22.292Z,56.56
2018-08-03T03:34:22.241Z,56.46
2018-08-03T03:35:22.236Z,56.38
2018-08-03T03:36:22.301Z,57.39
2018-08-03T03:37:22.216Z,57.09
2018-08-03T03:38:22.200Z,56.68
2018-08-03T03:39:22.191Z,57.06
2018-08-03T03:40:22.243Z,54.49
2018-08-03T03:41:22.166Z,56.38
2018-08-03T03:42:22.222Z,53.66
2018-08-03T03:43:22.154Z,56.18
2018-08-03T03:44:22.163Z,56.09
2018-08-03T03:45:22.143Z,55.58
2018-08-03T03:46:22.119Z,56.38
2018-08-03T03:47:22.561Z,57.39
2018-08-03T03:48:22.092Z,57.28
2018-08-03T03:49:22.087Z,55.39
2018-08-03T03:50:22.075Z,56.68
2018-08-03T03:51:22.061Z,55.96
2018-08-03T03:52:22.121Z,56.59
2018-08-03T03:53:22.042Z,57.18
2018-08-03T03:54:22.039Z,57.88
2018-08-03T03:55:22.022Z,57.78
2018-08-03T03:56:22.022Z,57.78
2018-08-03T03:57:22.064Z,57.88
2018-08-03T03:58:21.985Z,57.98
2018-08-03T03:59:21.991Z,57.28
2018-08-03T04:00:21.972Z,57.21
2018-08-03T04:01:21.975Z,58.28
2018-08-03T04:02:22.022Z,58.21
2018-08-03T04:03:21.951Z,58.51
2018-08-03T04:04:21.973Z,57.98
2018-08-03T04:05:21.911Z,58.61
2018-08-03T04:06:21.911Z,58.81
2018-08-03T04:07:21.966Z,57.81
2018-08-03T04:08:22.510Z,58.01
2018-08-03T04:09:21.878Z,58.01
2018-08-03T04:10:21.856Z,58.91
2018-08-03T04:11:21.848Z,57.91
2018-08-03T04:12:21.913Z,58.01
2018-08-03T04:13:22.480Z,58.91
2018-08-03T04:14:21.816Z,57.81
2018-08-03T04:15:21.809Z,57.01
2018-08-03T04:16:21.792Z,56.11
2018-08-03T04:17:21.851Z,57.71
2018-08-03T04:18:21.773Z,58.01
2018-08-03T04:19:21.765Z,57.41
2018-08-03T04:20:21.753Z,57.91
2018-08-03T04:21:21.743Z,57.61
2018-08-03T04:22:21.795Z,57.61
2018-08-03T04:23:21.720Z,57.81
2018-08-03T04:24:21.707Z,56.59
2018-08-03T04:25:21.699Z,57.61
2018-08-03T04:26:21.688Z,57.91
2018-08-03T04:27:21.751Z,57.21
2018-08-03T04:28:21.665Z,57.51
2018-08-03T04:29:22.484Z,57.91
2018-08-03T04:30:21.645Z,58.68
2018-08-03T04:31:21.648Z,57.68
2018-08-03T04:32:21.695Z,57.88
2018-08-03T04:33:21.619Z,56.51
2018-08-03T04:34:21.601Z,57.61
2018-08-03T04:35:21.590Z,58.21
2018-08-03T04:36:21.579Z,57.98
2018-08-03T04:37:21.637Z,58.01
2018-08-03T04:38:21.560Z,58.01
2018-08-03T04:39:21.572Z,58.71
2018-08-03T04:40:21.535Z,57.78
2018-08-03T04:41:21.526Z,58.31
2018-08-03T04:42:21.640Z,58.01
2018-08-03T04:43:22.486Z,58.91
2018-08-03T04:44:21.501Z,57.39
2018-08-03T04:45:21.485Z,58.88
2018-08-03T04:46:21.485Z,58.98
2018-08-03T04:47:21.531Z,57.78
2018-08-03T04:48:21.453Z,58.28
2018-08-03T04:49:21.444Z,57.78
2018-08-03T04:50:25.979Z,56.98
2018-08-03T04:51:21.422Z,55.99
2018-08-03T04:52:21.476Z,58.31
2018-08-03T04:53:21.402Z,56.48
2018-08-03T04:54:21.388Z,56.09
2018-08-03T04:55:21.377Z,58.28
2018-08-03T04:56:21.369Z,56.09
2018-08-03T04:57:21.427Z,56.88
2018-08-03T04:58:21.357Z,56.09
2018-08-03T04:59:21.336Z,56.38
2018-08-03T05:00:21.327Z,55.39
2018-08-03T05:01:21.319Z,56.79
2018-08-03T05:02:29.499Z,55.76
2018-08-03T05:03:29.808Z,57.09
2018-08-03T05:04:21.293Z,56.09
2018-08-03T05:05:28.814Z,56.36
2018-08-03T05:06:21.260Z,58.06
2018-08-03T05:07:21.329Z,57.95
2018-08-03T05:08:21.244Z,58.15
2018-08-03T05:09:21.233Z,57.26
2018-08-03T05:10:21.224Z,57.95
2018-08-03T05:11:21.218Z,57.35
2018-08-03T05:12:21.259Z,58.18
2018-08-03T05:13:21.194Z,58.08
2018-08-03T05:14:21.239Z,58.55
2018-08-03T05:15:21.178Z,58.85
2018-08-03T05:16:21.157Z,58.78
2018-08-03T05:17:21.240Z,56.18
2018-08-03T05:18:21.139Z,56.56
2018-08-03T05:19:21.128Z,58.06
2018-08-03T05:20:21.115Z,56.46
2018-08-03T05:21:21.105Z,56.16
2018-08-03T05:22:21.095Z,56.66
2018-08-03T05:23:21.157Z,57.06
2018-08-03T05:24:21.655Z,56.63
2018-08-03T05:25:29.276Z,56.73
